sensor_id;sensor_type;location;lat;lon;timestamp;P1;durP1;ratioP1;P2;durP2;ratioP2
2630;SDS011;1325;48.414;9.952;2022-07-06T00:00:07;34.80;;;3.97;;
2630;SDS011;1325;48.414;9.952;2022-07-06T00:02:36;32.97;;;2.80;;
2630;SDS011;1325;48.414;9.952;2022-07-06T00:05:03;34.80;;;3.00;;
2630;SDS011;1325;48.414;9.952;2022-07-06T00:07:31;34.60;;;2.93;;
2630;SDS011;1325;48.414;9.952;2022-07-06T00:09:58;32.57;;;2.70;;
2630;SDS011;1325;48.414;9.952;2022-07-06T00:12:26;34.70;;;3.40;;
2630;SDS011;1325;48.414;9.952;2022-07-06T00:14:53;36.93;;;2.70;;
2630;SDS011;1325;48.414;9.952;2022-07-06T00:17:21;33.27;;;2.73;;
2630;SDS011;1325;48.414;9.952;2022-07-06T00:19:49;32.00;;;2.30;;
2630;SDS011;1325;48.414;9.952;2022-07-06T00:22:16;34.43;;;3.00;;
2630;SDS011;1325;48.414;9.952;2022-07-06T00:24:43;32.90;;;2.90;;
2630;SDS011;1325;48.414;9.952;2022-07-06T00:27:10;33.87;;;2.43;;
2630;SDS011;1325;48.414;9.952;2022-07-06T00:29:37;32.30;;;2.33;;
2630;SDS011;1325;48.414;9.952;2022-07-06T00:32:09;32.20;;;2.20;;
2630;SDS011;1325;48.414;9.952;2022-07-06T00:34:38;33.00;;;2.63;;
2630;SDS011;1325;48.414;9.952;2022-07-06T00:37:05;32.03;;;2.17;;
2630;SDS011;1325;48.414;9.952;2022-07-06T00:39:33;32.70;;;2.50;;
2630;SDS011;1325;48.414;9.952;2022-07-06T00:42:00;33.20;;;2.67;;
2630;SDS011;1325;48.414;9.952;2022-07-06T00:44:28;31.90;;;2.30;;
2630;SDS011;1325;48.414;9.952;2022-07-06T00:46:56;31.87;;;2.30;;
2630;SDS011;1325;48.414;9.952;2022-07-06T00:49:23;32.50;;;2.70;;
2630;SDS011;1325;48.414;9.952;2022-07-06T00:52:09;34.07;;;2.90;;
2630;SDS011;1325;48.414;9.952;2022-07-06T00:54:37;33.00;;;3.07;;
2630;SDS011;1325;48.414;9.952;2022-07-06T00:57:06;32.67;;;2.60;;
2630;SDS011;1325;48.414;9.952;2022-07-06T00:59:33;32.10;;;2.50;;
2630;SDS011;1325;48.414;9.952;2022-07-06T01:02:02;32.90;;;2.40;;
2630;SDS011;1325;48.414;9.952;2022-07-06T01:04:30;32.30;;;2.50;;
2630;SDS011;1325;48.414;9.952;2022-07-06T01:06:57;31.90;;;2.23;;
2630;SDS011;1325;48.414;9.952;2022-07-06T01:09:26;33.00;;;2.40;;
2630;SDS011;1325;48.414;9.952;2022-07-06T01:11:53;33.03;;;2.83;;
2630;SDS011;1325;48.414;9.952;2022-07-06T01:14:21;32.27;;;2.50;;
2630;SDS011;1325;48.414;9.952;2022-07-06T01:16:48;33.80;;;2.40;;
2630;SDS011;1325;48.414;9.952;2022-07-06T01:19:16;32.07;;;2.23;;
2630;SDS011;1325;48.414;9.952;2022-07-06T01:21:44;31.87;;;2.20;;
2630;SDS011;1325;48.414;9.952;2022-07-06T01:24:12;33.50;;;2.60;;
2630;SDS011;1325;48.414;9.952;2022-07-06T01:26:39;32.83;;;2.30;;
2630;SDS011;1325;48.414;9.952;2022-07-06T01:29:06;32.00;;;2.27;;
2630;SDS011;1325;48.414;9.952;2022-07-06T01:31:33;32.00;;;2.27;;
2630;SDS011;1325;48.414;9.952;2022-07-06T01:34:01;32.60;;;2.30;;
2630;SDS011;1325;48.414;9.952;2022-07-06T01:36:28;32.30;;;2.50;;
2630;SDS011;1325;48.414;9.952;2022-07-06T01:38:57;33.10;;;2.43;;
2630;SDS011;1325;48.414;9.952;2022-07-06T01:41:26;32.30;;;2.37;;
2630;SDS011;1325;48.414;9.952;2022-07-06T01:43:53;32.70;;;2.70;;
2630;SDS011;1325;48.414;9.952;2022-07-06T01:46:20;34.10;;;2.37;;
2630;SDS011;1325;48.414;9.952;2022-07-06T01:48:47;32.77;;;2.50;;
2630;SDS011;1325;48.414;9.952;2022-07-06T01:51:15;32.40;;;2.20;;
2630;SDS011;1325;48.414;9.952;2022-07-06T01:53:42;33.47;;;2.60;;
2630;SDS011;1325;48.414;9.952;2022-07-06T01:56:12;32.63;;;2.63;;
2630;SDS011;1325;48.414;9.952;2022-07-06T01:58:39;33.23;;;3.13;;
2630;SDS011;1325;48.414;9.952;2022-07-06T02:01:07;32.83;;;2.60;;
2630;SDS011;1325;48.414;9.952;2022-07-06T02:03:35;34.90;;;2.60;;
2630;SDS011;1325;48.414;9.952;2022-07-06T02:06:04;33.47;;;2.60;;
2630;SDS011;1325;48.414;9.952;2022-07-06T02:08:32;32.87;;;2.73;;
2630;SDS011;1325;48.414;9.952;2022-07-06T02:11:01;33.57;;;2.70;;
2630;SDS011;1325;48.414;9.952;2022-07-06T02:13:31;33.10;;;2.83;;
2630;SDS011;1325;48.414;9.952;2022-07-06T02:15:58;33.00;;;2.40;;
2630;SDS011;1325;48.414;9.952;2022-07-06T02:18:26;32.50;;;2.40;;
2630;SDS011;1325;48.414;9.952;2022-07-06T02:20:53;32.73;;;2.80;;
2630;SDS011;1325;48.414;9.952;2022-07-06T02:23:21;33.50;;;2.50;;
2630;SDS011;1325;48.414;9.952;2022-07-06T02:25:48;33.23;;;2.40;;
2630;SDS011;1325;48.414;9.952;2022-07-06T02:28:15;34.60;;;3.10;;
2630;SDS011;1325;48.414;9.952;2022-07-06T02:30:44;33.87;;;3.43;;
2630;SDS011;1325;48.414;9.952;2022-07-06T02:33:11;32.60;;;2.67;;
2630;SDS011;1325;48.414;9.952;2022-07-06T02:35:39;33.37;;;2.60;;
2630;SDS011;1325;48.414;9.952;2022-07-06T02:38:08;33.17;;;3.20;;
2630;SDS011;1325;48.414;9.952;2022-07-06T02:40:35;33.30;;;3.10;;
2630;SDS011;1325;48.414;9.952;2022-07-06T02:43:12;33.27;;;2.93;;
2630;SDS011;1325;48.414;9.952;2022-07-06T02:45:40;34.60;;;3.20;;
2630;SDS011;1325;48.414;9.952;2022-07-06T02:48:08;34.90;;;3.00;;
2630;SDS011;1325;48.414;9.952;2022-07-06T02:50:36;34.10;;;2.87;;
2630;SDS011;1325;48.414;9.952;2022-07-06T02:53:03;32.90;;;3.00;;
2630;SDS011;1325;48.414;9.952;2022-07-06T02:55:30;37.10;;;3.10;;
2630;SDS011;1325;48.414;9.952;2022-07-06T02:57:58;34.00;;;3.20;;
2630;SDS011;1325;48.414;9.952;2022-07-06T03:00:25;34.17;;;3.10;;
2630;SDS011;1325;48.414;9.952;2022-07-06T03:02:52;33.43;;;3.10;;
2630;SDS011;1325;48.414;9.952;2022-07-06T03:05:21;33.17;;;3.07;;
2630;SDS011;1325;48.414;9.952;2022-07-06T03:07:49;34.27;;;3.50;;
2630;SDS011;1325;48.414;9.952;2022-07-06T03:10:16;35.90;;;3.50;;
2630;SDS011;1325;48.414;9.952;2022-07-06T03:12:43;33.67;;;3.20;;
2630;SDS011;1325;48.414;9.952;2022-07-06T03:15:10;34.67;;;3.50;;
2630;SDS011;1325;48.414;9.952;2022-07-06T03:17:38;33.77;;;3.53;;
2630;SDS011;1325;48.414;9.952;2022-07-06T03:20:05;36.77;;;4.07;;
2630;SDS011;1325;48.414;9.952;2022-07-06T03:22:35;34.77;;;3.40;;
2630;SDS011;1325;48.414;9.952;2022-07-06T03:25:02;33.70;;;3.67;;
2630;SDS011;1325;48.414;9.952;2022-07-06T03:27:30;33.13;;;3.03;;
2630;SDS011;1325;48.414;9.952;2022-07-06T03:29:59;36.80;;;3.90;;
2630;SDS011;1325;48.414;9.952;2022-07-06T03:32:26;33.77;;;3.60;;
2630;SDS011;1325;48.414;9.952;2022-07-06T03:34:54;33.77;;;3.30;;
2630;SDS011;1325;48.414;9.952;2022-07-06T03:37:21;33.00;;;3.37;;
2630;SDS011;1325;48.414;9.952;2022-07-06T03:39:50;33.37;;;3.43;;
2630;SDS011;1325;48.414;9.952;2022-07-06T03:42:17;33.57;;;3.50;;
2630;SDS011;1325;48.414;9.952;2022-07-06T03:44:44;33.50;;;3.73;;
2630;SDS011;1325;48.414;9.952;2022-07-06T03:47:11;35.40;;;3.50;;
2630;SDS011;1325;48.414;9.952;2022-07-06T03:49:39;35.90;;;4.00;;
2630;SDS011;1325;48.414;9.952;2022-07-06T03:52:06;33.40;;;3.40;;
2630;SDS011;1325;48.414;9.952;2022-07-06T03:54:33;33.90;;;3.57;;
2630;SDS011;1325;48.414;9.952;2022-07-06T03:57:02;33.00;;;3.37;;
2630;SDS011;1325;48.414;9.952;2022-07-06T03:59:29;36.00;;;3.80;;
2630;SDS011;1325;48.414;9.952;2022-07-06T04:01:57;35.90;;;3.80;;
2630;SDS011;1325;48.414;9.952;2022-07-06T04:04:24;33.20;;;3.50;;
2630;SDS011;1325;48.414;9.952;2022-07-06T04:06:51;35.60;;;3.90;;
2630;SDS011;1325;48.414;9.952;2022-07-06T04:09:18;33.30;;;3.30;;
2630;SDS011;1325;48.414;9.952;2022-07-06T04:11:46;34.67;;;3.33;;
2630;SDS011;1325;48.414;9.952;2022-07-06T04:14:14;33.60;;;3.63;;
2630;SDS011;1325;48.414;9.952;2022-07-06T04:16:42;33.17;;;3.50;;
2630;SDS011;1325;48.414;9.952;2022-07-06T04:19:09;35.40;;;3.80;;
2630;SDS011;1325;48.414;9.952;2022-07-06T04:21:36;33.73;;;3.73;;
2630;SDS011;1325;48.414;9.952;2022-07-06T04:24:04;34.17;;;3.80;;
2630;SDS011;1325;48.414;9.952;2022-07-06T04:26:31;33.70;;;3.50;;
2630;SDS011;1325;48.414;9.952;2022-07-06T04:28:58;34.50;;;4.00;;
2630;SDS011;1325;48.414;9.952;2022-07-06T04:31:27;34.60;;;3.77;;
2630;SDS011;1325;48.414;9.952;2022-07-06T04:33:54;34.80;;;3.90;;
2630;SDS011;1325;48.414;9.952;2022-07-06T04:36:21;35.50;;;3.83;;
2630;SDS011;1325;48.414;9.952;2022-07-06T04:38:49;33.20;;;3.40;;
2630;SDS011;1325;48.414;9.952;2022-07-06T04:41:16;38.70;;;4.03;;
2630;SDS011;1325;48.414;9.952;2022-07-06T04:43:43;33.57;;;3.83;;
2630;SDS011;1325;48.414;9.952;2022-07-06T04:46:10;34.07;;;3.90;;
2630;SDS011;1325;48.414;9.952;2022-07-06T04:48:39;34.27;;;3.30;;
2630;SDS011;1325;48.414;9.952;2022-07-06T04:51:07;34.30;;;3.70;;
2630;SDS011;1325;48.414;9.952;2022-07-06T04:53:34;33.03;;;3.17;;
2630;SDS011;1325;48.414;9.952;2022-07-06T04:56:03;34.47;;;3.43;;
2630;SDS011;1325;48.414;9.952;2022-07-06T04:58:30;33.93;;;3.53;;
2630;SDS011;1325;48.414;9.952;2022-07-06T05:00:57;35.47;;;3.60;;
2630;SDS011;1325;48.414;9.952;2022-07-06T05:03:25;35.10;;;3.40;;
2630;SDS011;1325;48.414;9.952;2022-07-06T05:05:54;33.10;;;3.43;;
2630;SDS011;1325;48.414;9.952;2022-07-06T05:08:21;32.17;;;2.90;;
2630;SDS011;1325;48.414;9.952;2022-07-06T05:10:48;33.90;;;3.30;;
2630;SDS011;1325;48.414;9.952;2022-07-06T05:13:17;32.67;;;3.47;;
2630;SDS011;1325;48.414;9.952;2022-07-06T05:15:44;32.33;;;3.63;;
2630;SDS011;1325;48.414;9.952;2022-07-06T05:18:12;32.00;;;3.73;;
2630;SDS011;1325;48.414;9.952;2022-07-06T05:20:39;31.87;;;2.93;;
2630;SDS011;1325;48.414;9.952;2022-07-06T05:23:21;34.00;;;3.47;;
2630;SDS011;1325;48.414;9.952;2022-07-06T05:25:49;31.87;;;3.33;;
2630;SDS011;1325;48.414;9.952;2022-07-06T05:28:16;34.27;;;3.57;;
2630;SDS011;1325;48.414;9.952;2022-07-06T05:30:43;32.27;;;3.60;;
2630;SDS011;1325;48.414;9.952;2022-07-06T05:33:10;34.70;;;3.50;;
2630;SDS011;1325;48.414;9.952;2022-07-06T05:35:38;32.40;;;2.73;;
2630;SDS011;1325;48.414;9.952;2022-07-06T05:38:05;31.10;;;2.97;;
2630;SDS011;1325;48.414;9.952;2022-07-06T05:40:33;31.77;;;2.80;;
2630;SDS011;1325;48.414;9.952;2022-07-06T05:43:01;32.80;;;3.10;;
2630;SDS011;1325;48.414;9.952;2022-07-06T05:45:28;31.97;;;3.00;;
2630;SDS011;1325;48.414;9.952;2022-07-06T05:47:56;33.37;;;3.60;;
2630;SDS011;1325;48.414;9.952;2022-07-06T05:50:40;31.73;;;2.87;;
2630;SDS011;1325;48.414;9.952;2022-07-06T05:53:08;32.23;;;3.00;;
2630;SDS011;1325;48.414;9.952;2022-07-06T05:55:36;31.93;;;2.73;;
2630;SDS011;1325;48.414;9.952;2022-07-06T05:58:04;33.03;;;2.80;;
2630;SDS011;1325;48.414;9.952;2022-07-06T06:00:31;30.70;;;2.43;;
2630;SDS011;1325;48.414;9.952;2022-07-06T06:02:58;30.57;;;2.93;;
2630;SDS011;1325;48.414;9.952;2022-07-06T06:05:26;31.40;;;3.30;;
2630;SDS011;1325;48.414;9.952;2022-07-06T06:07:53;30.37;;;2.63;;
2630;SDS011;1325;48.414;9.952;2022-07-06T06:10:21;30.67;;;2.80;;
2630;SDS011;1325;48.414;9.952;2022-07-06T06:12:51;30.63;;;3.00;;
2630;SDS011;1325;48.414;9.952;2022-07-06T06:15:18;32.30;;;3.20;;
2630;SDS011;1325;48.414;9.952;2022-07-06T06:17:45;29.67;;;2.50;;
2630;SDS011;1325;48.414;9.952;2022-07-06T06:20:13;32.50;;;2.70;;
2630;SDS011;1325;48.414;9.952;2022-07-06T06:22:44;31.93;;;2.70;;
2630;SDS011;1325;48.414;9.952;2022-07-06T06:25:13;30.20;;;2.63;;
2630;SDS011;1325;48.414;9.952;2022-07-06T06:27:41;29.93;;;2.40;;
2630;SDS011;1325;48.414;9.952;2022-07-06T06:30:10;32.07;;;2.83;;
2630;SDS011;1325;48.414;9.952;2022-07-06T06:32:39;32.03;;;3.00;;
2630;SDS011;1325;48.414;9.952;2022-07-06T06:35:06;30.63;;;2.80;;
2630;SDS011;1325;48.414;9.952;2022-07-06T06:37:34;30.40;;;3.00;;
2630;SDS011;1325;48.414;9.952;2022-07-06T06:40:02;30.80;;;2.63;;
2630;SDS011;1325;48.414;9.952;2022-07-06T06:42:32;30.10;;;2.50;;
2630;SDS011;1325;48.414;9.952;2022-07-06T06:45:02;30.07;;;2.73;;
2630;SDS011;1325;48.414;9.952;2022-07-06T06:47:32;29.90;;;2.83;;
2630;SDS011;1325;48.414;9.952;2022-07-06T06:49:59;32.77;;;2.90;;
2630;SDS011;1325;48.414;9.952;2022-07-06T06:52:26;31.37;;;2.87;;
2630;SDS011;1325;48.414;9.952;2022-07-06T06:54:53;31.17;;;3.03;;
2630;SDS011;1325;48.414;9.952;2022-07-06T06:57:21;30.80;;;2.47;;
2630;SDS011;1325;48.414;9.952;2022-07-06T06:59:48;30.27;;;2.70;;
2630;SDS011;1325;48.414;9.952;2022-07-06T07:02:15;31.10;;;2.80;;
2630;SDS011;1325;48.414;9.952;2022-07-06T07:04:44;32.33;;;2.63;;
2630;SDS011;1325;48.414;9.952;2022-07-06T07:07:11;30.00;;;2.80;;
2630;SDS011;1325;48.414;9.952;2022-07-06T07:09:38;31.17;;;2.77;;
2630;SDS011;1325;48.414;9.952;2022-07-06T07:12:06;30.57;;;2.70;;
2630;SDS011;1325;48.414;9.952;2022-07-06T07:14:35;30.00;;;2.70;;
2630;SDS011;1325;48.414;9.952;2022-07-06T07:17:02;30.67;;;3.00;;
2630;SDS011;1325;48.414;9.952;2022-07-06T07:19:32;29.70;;;2.83;;
2630;SDS011;1325;48.414;9.952;2022-07-06T07:22:00;29.70;;;2.60;;
2630;SDS011;1325;48.414;9.952;2022-07-06T07:24:27;31.03;;;2.93;;
2630;SDS011;1325;48.414;9.952;2022-07-06T07:26:55;30.07;;;2.83;;
2630;SDS011;1325;48.414;9.952;2022-07-06T07:29:22;30.70;;;2.87;;
2630;SDS011;1325;48.414;9.952;2022-07-06T07:31:49;31.03;;;3.00;;
2630;SDS011;1325;48.414;9.952;2022-07-06T07:34:17;30.93;;;2.93;;
2630;SDS011;1325;48.414;9.952;2022-07-06T07:36:44;31.40;;;3.13;;
2630;SDS011;1325;48.414;9.952;2022-07-06T07:39:13;31.60;;;2.70;;
2630;SDS011;1325;48.414;9.952;2022-07-06T07:41:40;30.90;;;3.30;;
2630;SDS011;1325;48.414;9.952;2022-07-06T07:44:07;31.43;;;2.57;;
2630;SDS011;1325;48.414;9.952;2022-07-06T07:46:34;30.57;;;3.20;;
2630;SDS011;1325;48.414;9.952;2022-07-06T07:49:02;30.47;;;3.20;;
2630;SDS011;1325;48.414;9.952;2022-07-06T07:51:29;29.27;;;2.27;;
2630;SDS011;1325;48.414;9.952;2022-07-06T07:53:56;30.30;;;2.93;;
2630;SDS011;1325;48.414;9.952;2022-07-06T07:56:25;31.20;;;2.97;;
2630;SDS011;1325;48.414;9.952;2022-07-06T07:58:52;29.20;;;2.50;;
2630;SDS011;1325;48.414;9.952;2022-07-06T08:01:19;31.67;;;2.73;;
2630;SDS011;1325;48.414;9.952;2022-07-06T08:03:47;31.77;;;2.77;;
2630;SDS011;1325;48.414;9.952;2022-07-06T08:06:17;29.47;;;3.03;;
2630;SDS011;1325;48.414;9.952;2022-07-06T08:08:44;30.17;;;2.80;;
2630;SDS011;1325;48.414;9.952;2022-07-06T08:11:11;30.57;;;2.90;;
2630;SDS011;1325;48.414;9.952;2022-07-06T08:13:40;30.77;;;3.17;;
2630;SDS011;1325;48.414;9.952;2022-07-06T08:16:07;30.00;;;2.87;;
2630;SDS011;1325;48.414;9.952;2022-07-06T08:18:35;31.20;;;2.87;;
2630;SDS011;1325;48.414;9.952;2022-07-06T08:21:03;30.77;;;2.73;;
2630;SDS011;1325;48.414;9.952;2022-07-06T08:23:31;30.90;;;3.10;;
2630;SDS011;1325;48.414;9.952;2022-07-06T08:25:59;30.60;;;3.00;;
2630;SDS011;1325;48.414;9.952;2022-07-06T08:28:27;30.10;;;3.50;;
2630;SDS011;1325;48.414;9.952;2022-07-06T08:30:55;31.23;;;2.63;;
2630;SDS011;1325;48.414;9.952;2022-07-06T08:33:23;30.70;;;2.97;;
2630;SDS011;1325;48.414;9.952;2022-07-06T08:35:50;29.47;;;2.80;;
2630;SDS011;1325;48.414;9.952;2022-07-06T08:38:17;29.40;;;2.60;;
2630;SDS011;1325;48.414;9.952;2022-07-06T08:40:45;29.73;;;2.90;;
2630;SDS011;1325;48.414;9.952;2022-07-06T08:43:15;28.60;;;2.30;;
2630;SDS011;1325;48.414;9.952;2022-07-06T08:45:42;29.80;;;3.00;;
2630;SDS011;1325;48.414;9.952;2022-07-06T08:48:13;29.97;;;3.07;;
2630;SDS011;1325;48.414;9.952;2022-07-06T08:50:42;29.07;;;2.67;;
2630;SDS011;1325;48.414;9.952;2022-07-06T08:53:09;29.73;;;2.77;;
2630;SDS011;1325;48.414;9.952;2022-07-06T08:55:36;30.80;;;2.60;;
2630;SDS011;1325;48.414;9.952;2022-07-06T08:58:05;29.97;;;2.50;;
2630;SDS011;1325;48.414;9.952;2022-07-06T09:00:34;29.90;;;2.73;;
2630;SDS011;1325;48.414;9.952;2022-07-06T09:03:02;29.33;;;2.73;;
2630;SDS011;1325;48.414;9.952;2022-07-06T09:05:32;29.90;;;2.67;;
2630;SDS011;1325;48.414;9.952;2022-07-06T09:08:02;30.50;;;3.10;;
2630;SDS011;1325;48.414;9.952;2022-07-06T09:10:30;30.40;;;2.77;;
2630;SDS011;1325;48.414;9.952;2022-07-06T09:13:04;29.20;;;2.70;;
2630;SDS011;1325;48.414;9.952;2022-07-06T09:15:35;29.77;;;2.50;;
2630;SDS011;1325;48.414;9.952;2022-07-06T09:18:04;28.90;;;2.97;;
2630;SDS011;1325;48.414;9.952;2022-07-06T09:20:34;29.20;;;2.40;;
2630;SDS011;1325;48.414;9.952;2022-07-06T09:23:02;29.17;;;2.73;;
2630;SDS011;1325;48.414;9.952;2022-07-06T09:25:31;29.43;;;2.70;;
2630;SDS011;1325;48.414;9.952;2022-07-06T09:27:59;30.03;;;2.70;;
2630;SDS011;1325;48.414;9.952;2022-07-06T09:30:28;29.17;;;2.67;;
2630;SDS011;1325;48.414;9.952;2022-07-06T09:32:56;29.30;;;2.20;;
2630;SDS011;1325;48.414;9.952;2022-07-06T09:35:25;30.63;;;2.70;;
2630;SDS011;1325;48.414;9.952;2022-07-06T09:38:03;29.70;;;2.50;;
2630;SDS011;1325;48.414;9.952;2022-07-06T09:40:32;30.07;;;2.50;;
2630;SDS011;1325;48.414;9.952;2022-07-06T09:43:08;29.80;;;2.20;;
2630;SDS011;1325;48.414;9.952;2022-07-06T09:45:41;30.83;;;2.87;;
2630;SDS011;1325;48.414;9.952;2022-07-06T09:48:11;29.57;;;3.00;;
2630;SDS011;1325;48.414;9.952;2022-07-06T09:50:41;28.57;;;2.10;;
2630;SDS011;1325;48.414;9.952;2022-07-06T09:53:11;34.57;;;2.60;;
2630;SDS011;1325;48.414;9.952;2022-07-06T09:55:43;28.97;;;2.40;;
2630;SDS011;1325;48.414;9.952;2022-07-06T09:58:12;29.50;;;2.50;;
2630;SDS011;1325;48.414;9.952;2022-07-06T10:00:39;28.30;;;2.17;;
2630;SDS011;1325;48.414;9.952;2022-07-06T10:03:08;30.17;;;2.90;;
2630;SDS011;1325;48.414;9.952;2022-07-06T10:05:36;31.77;;;2.43;;
2630;SDS011;1325;48.414;9.952;2022-07-06T10:08:05;28.57;;;2.23;;
2630;SDS011;1325;48.414;9.952;2022-07-06T10:10:37;28.47;;;2.50;;
2630;SDS011;1325;48.414;9.952;2022-07-06T10:13:06;29.57;;;2.40;;
2630;SDS011;1325;48.414;9.952;2022-07-06T10:15:35;28.37;;;2.20;;
2630;SDS011;1325;48.414;9.952;2022-07-06T10:18:04;32.40;;;2.70;;
2630;SDS011;1325;48.414;9.952;2022-07-06T10:20:34;29.77;;;2.77;;
2630;SDS011;1325;48.414;9.952;2022-07-06T10:23:04;29.37;;;2.47;;
2630;SDS011;1325;48.414;9.952;2022-07-06T10:25:33;28.80;;;2.30;;
2630;SDS011;1325;48.414;9.952;2022-07-06T10:28:03;30.33;;;2.67;;
2630;SDS011;1325;48.414;9.952;2022-07-06T10:30:39;29.40;;;2.53;;
2630;SDS011;1325;48.414;9.952;2022-07-06T10:33:07;30.93;;;2.80;;
2630;SDS011;1325;48.414;9.952;2022-07-06T10:35:41;30.33;;;2.50;;
2630;SDS011;1325;48.414;9.952;2022-07-06T10:38:10;29.67;;;2.43;;
2630;SDS011;1325;48.414;9.952;2022-07-06T10:40:39;30.40;;;2.57;;
2630;SDS011;1325;48.414;9.952;2022-07-06T10:43:30;30.27;;;2.87;;
2630;SDS011;1325;48.414;9.952;2022-07-06T10:46:01;29.37;;;2.53;;
2630;SDS011;1325;48.414;9.952;2022-07-06T10:48:36;32.20;;;2.57;;
2630;SDS011;1325;48.414;9.952;2022-07-06T10:51:04;30.27;;;2.80;;
2630;SDS011;1325;48.414;9.952;2022-07-06T10:53:34;30.30;;;2.43;;
2630;SDS011;1325;48.414;9.952;2022-07-06T10:56:05;30.77;;;2.80;;
2630;SDS011;1325;48.414;9.952;2022-07-06T10:58:35;34.13;;;2.30;;
2630;SDS011;1325;48.414;9.952;2022-07-06T11:01:07;29.70;;;2.50;;
2630;SDS011;1325;48.414;9.952;2022-07-06T11:03:36;30.37;;;2.60;;
2630;SDS011;1325;48.414;9.952;2022-07-06T11:06:09;29.67;;;2.50;;
2630;SDS011;1325;48.414;9.952;2022-07-06T11:08:43;30.17;;;2.80;;
2630;SDS011;1325;48.414;9.952;2022-07-06T11:11:17;31.50;;;2.70;;
2630;SDS011;1325;48.414;9.952;2022-07-06T11:13:50;30.40;;;2.50;;
2630;SDS011;1325;48.414;9.952;2022-07-06T11:16:20;31.27;;;2.50;;
2630;SDS011;1325;48.414;9.952;2022-07-06T11:18:59;36.23;;;3.43;;
2630;SDS011;1325;48.414;9.952;2022-07-06T11:21:34;31.80;;;2.63;;
2630;SDS011;1325;48.414;9.952;2022-07-06T11:24:08;30.17;;;2.70;;
2630;SDS011;1325;48.414;9.952;2022-07-06T11:26:39;29.63;;;2.70;;
2630;SDS011;1325;48.414;9.952;2022-07-06T11:29:10;29.67;;;2.30;;
2630;SDS011;1325;48.414;9.952;2022-07-06T11:31:38;29.40;;;2.50;;
2630;SDS011;1325;48.414;9.952;2022-07-06T11:34:08;30.17;;;2.63;;
2630;SDS011;1325;48.414;9.952;2022-07-06T11:36:38;29.70;;;2.30;;
2630;SDS011;1325;48.414;9.952;2022-07-06T11:39:06;31.20;;;2.60;;
2630;SDS011;1325;48.414;9.952;2022-07-06T11:41:33;30.57;;;2.70;;
2630;SDS011;1325;48.414;9.952;2022-07-06T11:44:03;30.63;;;2.90;;
2630;SDS011;1325;48.414;9.952;2022-07-06T11:46:31;31.10;;;2.80;;
2630;SDS011;1325;48.414;9.952;2022-07-06T11:49:04;29.90;;;2.77;;
2630;SDS011;1325;48.414;9.952;2022-07-06T11:51:34;30.43;;;2.60;;
2630;SDS011;1325;48.414;9.952;2022-07-06T11:54:07;32.07;;;2.30;;
2630;SDS011;1325;48.414;9.952;2022-07-06T11:56:36;29.27;;;2.00;;
2630;SDS011;1325;48.414;9.952;2022-07-06T11:59:07;29.70;;;2.40;;
2630;SDS011;1325;48.414;9.952;2022-07-06T12:01:37;29.70;;;2.47;;
2630;SDS011;1325;48.414;9.952;2022-07-06T12:04:07;29.60;;;2.50;;
2630;SDS011;1325;48.414;9.952;2022-07-06T12:06:34;30.80;;;2.70;;
2630;SDS011;1325;48.414;9.952;2022-07-06T12:09:01;29.93;;;2.70;;
2630;SDS011;1325;48.414;9.952;2022-07-06T12:11:31;31.90;;;2.70;;
2630;SDS011;1325;48.414;9.952;2022-07-06T12:14:01;31.13;;;3.20;;
2630;SDS011;1325;48.414;9.952;2022-07-06T12:16:40;30.20;;;2.50;;
2630;SDS011;1325;48.414;9.952;2022-07-06T12:19:08;33.20;;;3.73;;
2630;SDS011;1325;48.414;9.952;2022-07-06T12:21:41;30.73;;;2.30;;
2630;SDS011;1325;48.414;9.952;2022-07-06T12:24:16;30.57;;;3.10;;
2630;SDS011;1325;48.414;9.952;2022-07-06T12:26:45;32.27;;;2.80;;
2630;SDS011;1325;48.414;9.952;2022-07-06T12:29:13;31.50;;;3.13;;
2630;SDS011;1325;48.414;9.952;2022-07-06T12:31:43;30.67;;;3.20;;
2630;SDS011;1325;48.414;9.952;2022-07-06T12:34:16;31.00;;;2.57;;
2630;SDS011;1325;48.414;9.952;2022-07-06T12:36:45;33.00;;;2.63;;
2630;SDS011;1325;48.414;9.952;2022-07-06T12:39:16;31.40;;;2.93;;
2630;SDS011;1325;48.414;9.952;2022-07-06T12:41:46;30.80;;;2.90;;
2630;SDS011;1325;48.414;9.952;2022-07-06T12:44:16;30.80;;;2.63;;
2630;SDS011;1325;48.414;9.952;2022-07-06T12:46:46;31.40;;;2.83;;
2630;SDS011;1325;48.414;9.952;2022-07-06T12:49:14;29.73;;;2.60;;
2630;SDS011;1325;48.414;9.952;2022-07-06T12:51:51;30.57;;;2.70;;
2630;SDS011;1325;48.414;9.952;2022-07-06T12:54:22;29.93;;;2.47;;
2630;SDS011;1325;48.414;9.952;2022-07-06T12:57:05;29.70;;;2.80;;
2630;SDS011;1325;48.414;9.952;2022-07-06T12:59:38;30.83;;;2.47;;
2630;SDS011;1325;48.414;9.952;2022-07-06T13:02:16;29.70;;;2.87;;
2630;SDS011;1325;48.414;9.952;2022-07-06T13:04:54;30.03;;;2.40;;
2630;SDS011;1325;48.414;9.952;2022-07-06T13:07:24;30.83;;;2.50;;
2630;SDS011;1325;48.414;9.952;2022-07-06T13:09:52;30.90;;;2.87;;
2630;SDS011;1325;48.414;9.952;2022-07-06T13:12:20;31.63;;;2.57;;
2630;SDS011;1325;48.414;9.952;2022-07-06T13:14:48;30.20;;;2.77;;
2630;SDS011;1325;48.414;9.952;2022-07-06T13:17:17;29.47;;;2.37;;
2630;SDS011;1325;48.414;9.952;2022-07-06T13:19:45;30.07;;;2.70;;
2630;SDS011;1325;48.414;9.952;2022-07-06T13:22:12;29.33;;;2.43;;
2630;SDS011;1325;48.414;9.952;2022-07-06T13:24:39;30.60;;;3.03;;
2630;SDS011;1325;48.414;9.952;2022-07-06T13:27:07;29.40;;;2.20;;
2630;SDS011;1325;48.414;9.952;2022-07-06T13:29:35;29.30;;;2.37;;
2630;SDS011;1325;48.414;9.952;2022-07-06T13:32:02;30.17;;;2.47;;
2630;SDS011;1325;48.414;9.952;2022-07-06T13:34:32;30.07;;;2.77;;
2630;SDS011;1325;48.414;9.952;2022-07-06T13:37:00;29.50;;;2.33;;
2630;SDS011;1325;48.414;9.952;2022-07-06T13:39:28;30.27;;;2.40;;
2630;SDS011;1325;48.414;9.952;2022-07-06T13:41:55;29.63;;;2.40;;
2630;SDS011;1325;48.414;9.952;2022-07-06T13:44:23;30.30;;;2.33;;
2630;SDS011;1325;48.414;9.952;2022-07-06T13:46:50;33.43;;;2.80;;
2630;SDS011;1325;48.414;9.952;2022-07-06T13:49:18;30.33;;;2.90;;
2630;SDS011;1325;48.414;9.952;2022-07-06T13:51:47;29.60;;;2.87;;
2630;SDS011;1325;48.414;9.952;2022-07-06T13:54:14;29.97;;;2.67;;
2630;SDS011;1325;48.414;9.952;2022-07-06T13:56:41;31.40;;;3.60;;
2630;SDS011;1325;48.414;9.952;2022-07-06T13:59:09;30.73;;;2.57;;
2630;SDS011;1325;48.414;9.952;2022-07-06T14:01:36;30.20;;;2.90;;
2630;SDS011;1325;48.414;9.952;2022-07-06T14:04:03;30.40;;;2.90;;
2630;SDS011;1325;48.414;9.952;2022-07-06T14:06:30;30.30;;;2.77;;
2630;SDS011;1325;48.414;9.952;2022-07-06T14:09:00;32.37;;;3.10;;
2630;SDS011;1325;48.414;9.952;2022-07-06T14:11:27;30.00;;;2.60;;
2630;SDS011;1325;48.414;9.952;2022-07-06T14:13:54;29.97;;;2.70;;
2630;SDS011;1325;48.414;9.952;2022-07-06T14:16:21;32.13;;;3.47;;
2630;SDS011;1325;48.414;9.952;2022-07-06T14:18:49;31.30;;;3.03;;
2630;SDS011;1325;48.414;9.952;2022-07-06T14:21:16;30.70;;;3.00;;
2630;SDS011;1325;48.414;9.952;2022-07-06T14:23:43;30.47;;;3.10;;
2630;SDS011;1325;48.414;9.952;2022-07-06T14:26:12;35.50;;;3.17;;
2630;SDS011;1325;48.414;9.952;2022-07-06T14:28:39;30.30;;;2.83;;
2630;SDS011;1325;48.414;9.952;2022-07-06T14:31:07;31.90;;;2.90;;
2630;SDS011;1325;48.414;9.952;2022-07-06T14:33:34;30.83;;;2.90;;
2630;SDS011;1325;48.414;9.952;2022-07-06T14:36:01;31.10;;;3.07;;
2630;SDS011;1325;48.414;9.952;2022-07-06T14:38:29;30.47;;;2.90;;
2630;SDS011;1325;48.414;9.952;2022-07-06T14:40:57;30.77;;;3.40;;
2630;SDS011;1325;48.414;9.952;2022-07-06T14:43:25;31.77;;;3.50;;
2630;SDS011;1325;48.414;9.952;2022-07-06T14:45:52;30.97;;;3.13;;
2630;SDS011;1325;48.414;9.952;2022-07-06T14:48:20;33.80;;;3.40;;
2630;SDS011;1325;48.414;9.952;2022-07-06T14:50:47;31.53;;;2.70;;
2630;SDS011;1325;48.414;9.952;2022-07-06T14:53:14;32.67;;;3.60;;
2630;SDS011;1325;48.414;9.952;2022-07-06T14:55:42;31.57;;;3.70;;
2630;SDS011;1325;48.414;9.952;2022-07-06T14:58:09;31.80;;;3.67;;
2630;SDS011;1325;48.414;9.952;2022-07-06T15:00:38;32.50;;;3.90;;
2630;SDS011;1325;48.414;9.952;2022-07-06T15:03:05;30.70;;;3.77;;
2630;SDS011;1325;48.414;9.952;2022-07-06T15:05:32;31.20;;;3.40;;
2630;SDS011;1325;48.414;9.952;2022-07-06T15:08:00;31.63;;;3.50;;